Terminal Aerodrome Forecast
Issued by NWS

Home | Current Version | Previous Version | Text Only | Print | Product List | Glossary On
Versions: 1 2 3 4 5 6 7 8 9 10 11 12 13
000
FTUS44 KTSA 011700
TAFRVS
TAF
KRVS 011720Z 0118/0218 18012G18KT P6SM SCT050 SCT250
     FM020000 16007KT P6SM SCT100 BKN250
     FM020900 17005KT P6SM VCTS BKN070CB
      TEMPO 0210/0214 4SM TSRA BKN040CB
     FM021500 18013KT P6SM BKN100=

USA.gov is the U.S. government's official web portal to all federal, state and local government web resources and services.